Time;durP1;ratioP1;P1;durP2;ratioP2;P2;SDS_P1;SDS_P2;PMS_P1;PMS_P2;Temp;Humidity;BMP_temperature;BMP_pressure;BME280_temperature;BME280_humidity;BME280_pressure;Samples;Min_cycle;Max_cycle;Signal;HPM_P1;HPM_P2
2021/09/03 00:01:04;;;;;;;16.38;9.90;;;;;;;13.51;69.31;99208.50;5032013;28;20029;-71
2021/09/03 00:03:30;;;;;;;15.80;9.27;;;;;;;13.46;69.42;99203.03;5030357;28;20029;-70
2021/09/03 00:05:56;;;;;;;18.60;9.88;;;;;;;13.40;69.52;99204.22;5031042;28;20083;-72
2021/09/03 00:08:21;;;;;;;17.77;9.82;;;;;;;13.34;69.45;99195.19;5030960;28;20041;-70
2021/09/03 00:10:47;;;;;;;17.27;9.82;;;;;;;13.28;69.40;99199.13;5030819;28;20025;-71
2021/09/03 00:13:12;;;;;;;17.73;9.35;;;;;;;13.20;69.64;99203.38;5030416;28;20029;-72
2021/09/03 00:15:38;;;;;;;17.17;9.45;;;;;;;13.16;69.99;99205.06;5030775;28;20480;-73
2021/09/03 00:18:03;;;;;;;18.67;9.52;;;;;;;13.11;69.72;99205.13;5030133;28;20028;-71
2021/09/03 00:20:29;;;;;;;18.13;9.40;;;;;;;13.05;69.73;99193.38;5030700;28;20480;-72
2021/09/03 00:22:55;;;;;;;17.52;10.43;;;;;;;13.03;69.99;99197.56;5023492;28;20914;-72
2021/09/03 00:25:20;;;;;;;17.27;9.68;;;;;;;12.99;69.95;99194.56;5012497;28;20076;-71
2021/09/03 00:27:46;;;;;;;17.35;10.18;;;;;;;12.93;70.04;99195.72;5029870;28;20033;-72
2021/09/03 00:30:12;;;;;;;16.75;9.38;;;;;;;12.92;70.11;99202.34;5028280;28;20061;-72
2021/09/03 00:32:37;;;;;;;18.52;9.95;;;;;;;12.87;70.20;99197.72;5011294;28;20040;-71
2021/09/03 00:35:04;;;;;;;18.10;9.85;;;;;;;12.83;70.08;99201.38;5030136;28;20078;-72
2021/09/03 00:37:30;;;;;;;18.80;9.75;;;;;;;12.80;70.53;99197.25;5030335;28;20025;-73
2021/09/03 00:39:55;;;;;;;19.25;9.38;;;;;;;12.75;70.34;99200.91;5030658;28;20415;-73
2021/09/03 00:42:20;;;;;;;19.08;9.80;;;;;;;12.71;70.67;99197.09;5029711;28;20466;-72
2021/09/03 00:44:46;;;;;;;15.32;8.40;;;;;;;12.68;70.54;99197.66;5030405;28;20021;-72
2021/09/03 00:47:11;;;;;;;15.38;8.38;;;;;;;12.65;70.30;99195.50;5030767;28;20026;-71
2021/09/03 00:49:37;;;;;;;18.77;9.57;;;;;;;12.62;70.43;99199.66;5030772;28;20371;-73
2021/09/03 00:52:05;;;;;;;16.27;7.68;;;;;;;12.56;70.72;99189.81;5031228;28;20355;-73
2021/09/03 00:54:31;;;;;;;14.55;8.15;;;;;;;12.50;70.33;99197.28;5030991;28;20102;-72
2021/09/03 00:56:57;;;;;;;14.63;7.68;;;;;;;12.48;70.14;99193.19;5030718;28;20083;-73
2021/09/03 00:59:23;;;;;;;16.17;9.55;;;;;;;12.42;70.51;99184.19;5012154;28;20567;-72
2021/09/03 01:01:48;;;;;;;21.55;10.75;;;;;;;12.40;70.65;99191.91;5029696;28;20021;-73
2021/09/03 01:04:14;;;;;;;20.27;10.40;;;;;;;12.39;71.03;99190.28;5029751;28;20029;-73
2021/09/03 01:06:39;;;;;;;18.90;10.13;;;;;;;12.31;70.79;99177.16;5030020;28;20021;-73
2021/09/03 01:09:04;;;;;;;20.35;10.88;;;;;;;12.26;70.44;99177.19;5030072;28;20117;-73
2021/09/03 01:11:30;;;;;;;18.75;10.88;;;;;;;12.20;70.73;99181.94;5029351;28;20029;-71
2021/09/03 01:13:55;;;;;;;20.17;10.43;;;;;;;12.13;70.87;99179.50;5029923;28;20022;-75
2021/09/03 01:16:21;;;;;;;19.45;12.15;;;;;;;12.11;71.24;99178.97;5029300;28;20132;-73
2021/09/03 01:18:46;;;;;;;18.17;10.70;;;;;;;12.10;71.26;99174.56;5029015;28;20021;-73
2021/09/03 01:21:12;;;;;;;17.10;10.07;;;;;;;12.09;71.14;99169.38;5012816;28;20151;-73
2021/09/03 01:23:37;;;;;;;19.10;10.85;;;;;;;12.06;70.95;99162.50;5030884;28;20029;-73
2021/09/03 01:26:04;;;;;;;17.10;10.07;;;;;;;12.04;71.11;99165.56;5030793;28;20025;-73
2021/09/03 01:28:30;;;;;;;18.70;10.55;;;;;;;12.01;70.92;99163.38;5030761;28;20037;-73
2021/09/03 01:30:56;;;;;;;21.98;11.25;;;;;;;11.99;71.73;99162.00;5031056;28;20026;-73
2021/09/03 01:33:21;;;;;;;23.60;12.45;;;;;;;11.97;71.26;99158.72;5030336;28;20397;-73
2021/09/03 01:35:46;;;;;;;19.90;10.13;;;;;;;11.96;71.57;99157.91;5012562;28;20029;-73
2021/09/03 01:38:12;;;;;;;16.15;9.13;;;;;;;11.96;71.57;99159.84;5030555;28;20057;-73
2021/09/03 01:40:37;;;;;;;16.42;8.55;;;;;;;11.96;71.58;99154.34;5013002;28;20022;-73
2021/09/03 01:43:03;;;;;;;12.55;8.00;;;;;;;11.97;71.66;99153.22;5029741;28;20026;-73
2021/09/03 01:45:28;;;;;;;16.35;10.30;;;;;;;11.96;71.68;99144.16;5030304;28;20055;-73
2021/09/03 01:47:54;;;;;;;15.98;9.40;;;;;;;11.93;72.22;99147.47;5027818;28;20049;-73
2021/09/03 01:50:19;;;;;;;16.30;9.23;;;;;;;11.91;71.88;99141.44;5030338;28;20119;-74
2021/09/03 01:52:44;;;;;;;15.27;9.27;;;;;;;11.90;72.08;99145.31;5021090;28;20390;-74
2021/09/03 01:55:10;;;;;;;14.13;9.40;;;;;;;11.88;72.17;99148.34;5022087;28;20025;-72
2021/09/03 01:57:36;;;;;;;16.65;9.07;;;;;;;11.86;71.84;99145.06;5004863;28;20091;-73
2021/09/03 02:00:02;;;;;;;16.30;9.48;;;;;;;11.84;71.80;99139.03;5018329;28;20100;-73
2021/09/03 02:02:29;;;;;;;19.98;11.02;;;;;;;11.85;72.23;99137.09;5023924;28;20060;-73
2021/09/03 02:04:54;;;;;;;20.25;11.73;;;;;;;11.84;71.94;99141.78;5012154;28;20816;-73
2021/09/03 02:07:20;;;;;;;19.15;11.27;;;;;;;11.82;72.03;99133.00;5029469;28;20063;-73
2021/09/03 02:09:45;;;;;;;17.23;10.13;;;;;;;11.77;72.08;99139.38;5029697;28;20022;-73
2021/09/03 02:12:12;;;;;;;26.80;14.38;;;;;;;11.77;72.06;99130.28;5011597;28;20162;-73
2021/09/03 02:14:40;;;;;;;22.52;11.77;;;;;;;11.72;72.00;99139.41;5030127;28;20022;-73
2021/09/03 02:17:06;;;;;;;28.83;14.32;;;;;;;11.70;72.44;99132.53;5029590;28;20056;-74
2021/09/03 02:19:31;;;;;;;32.00;16.23;;;;;;;11.64;72.44;99133.69;5029729;28;20482;-74
2021/09/03 02:21:56;;;;;;;20.75;10.98;;;;;;;11.62;72.67;99132.06;5029320;28;20076;-74
2021/09/03 02:24:22;;;;;;;16.67;9.60;;;;;;;11.56;72.43;99135.13;5029674;28;20028;-73
2021/09/03 02:26:47;;;;;;;16.85;9.38;;;;;;;11.54;72.32;99121.69;5029504;28;20553;-73
2021/09/03 02:29:12;;;;;;;16.48;9.77;;;;;;;11.54;72.30;99131.84;5029749;28;20021;-73
2021/09/03 02:31:38;;;;;;;17.27;10.23;;;;;;;11.52;72.11;99125.81;5029331;28;20030;-74
2021/09/03 02:34:03;;;;;;;18.13;10.13;;;;;;;11.47;72.84;99124.75;5029777;28;20028;-73
2021/09/03 02:36:29;;;;;;;15.25;10.07;;;;;;;11.47;72.38;99126.69;5029741;28;20382;-73
2021/09/03 02:38:54;;;;;;;17.27;9.57;;;;;;;11.43;72.67;99115.44;5029278;28;20061;-73
2021/09/03 02:41:19;;;;;;;17.52;10.05;;;;;;;11.41;72.61;99123.13;5029089;28;20112;-73
2021/09/03 02:43:45;;;;;;;19.95;10.80;;;;;;;11.39;72.31;99117.16;5029851;28;20112;-73
2021/09/03 02:46:10;;;;;;;17.92;10.73;;;;;;;11.34;72.94;99122.66;5029565;28;20029;-73
2021/09/03 02:48:35;;;;;;;17.02;10.45;;;;;;;11.31;72.50;99124.03;5029109;28;20033;-73
2021/09/03 02:51:01;;;;;;;17.95;9.90;;;;;;;11.30;72.52;99118.84;5029348;28;20091;-72
2021/09/03 02:53:26;;;;;;;18.65;9.57;;;;;;;11.31;72.92;99120.47;5028082;28;20017;-73
2021/09/03 02:55:51;;;;;;;18.50;10.93;;;;;;;11.30;72.48;99116.91;5028512;28;20025;-73
2021/09/03 02:58:17;;;;;;;19.48;10.95;;;;;;;11.30;72.50;99116.09;5029123;28;20021;-74
2021/09/03 03:00:42;;;;;;;22.63;12.75;;;;;;;11.31;72.46;99113.06;5010938;28;20113;-73
2021/09/03 03:03:08;;;;;;;21.17;12.25;;;;;;;11.30;72.37;99111.41;5027544;28;20038;-73
2021/09/03 03:05:33;;;;;;;20.73;11.40;;;;;;;11.28;73.07;99110.88;5027598;28;20125;-73
2021/09/03 03:07:59;;;;;;;23.65;13.32;;;;;;;11.23;72.48;99105.41;5028977;28;20028;-73
2021/09/03 03:10:24;;;;;;;21.05;12.55;;;;;;;11.19;73.02;99109.88;5029337;28;20060;-74
2021/09/03 03:12:53;;;;;;;26.25;14.52;;;;;;;11.17;72.77;99107.38;5028219;28;20040;-74
2021/09/03 03:15:19;;;;;;;26.30;14.15;;;;;;;11.16;72.66;99104.94;5022944;28;20040;-72
2021/09/03 03:17:45;;;;;;;23.48;13.10;;;;;;;11.11;73.04;99103.03;5028084;28;20120;-73
2021/09/03 03:20:11;;;;;;;22.30;12.95;;;;;;;11.07;72.48;99107.44;5028789;28;20021;-73
2021/09/03 03:22:37;;;;;;;22.35;13.25;;;;;;;11.06;72.56;99096.75;5028663;28;20032;-73
2021/09/03 03:25:03;;;;;;;23.77;13.38;;;;;;;11.04;72.79;99101.72;5029022;28;20049;-73
2021/09/03 03:27:28;;;;;;;22.40;12.57;;;;;;;10.99;72.95;99108.06;5011151;28;20490;-73
2021/09/03 03:29:54;;;;;;;22.65;13.07;;;;;;;10.98;73.00;99112.72;5028865;28;20087;-73
2021/09/03 03:32:19;;;;;;;22.05;12.30;;;;;;;10.95;72.91;99106.97;5028995;28;20021;-73
2021/09/03 03:34:45;;;;;;;24.38;14.00;;;;;;;10.94;73.32;99099.84;5029026;28;20017;-73
2021/09/03 03:37:10;;;;;;;19.77;12.65;;;;;;;10.94;72.99;99097.09;5028872;28;20033;-73
2021/09/03 03:39:36;;;;;;;23.17;13.10;;;;;;;10.93;73.15;99099.00;5028612;28;20076;-73
2021/09/03 03:42:02;;;;;;;22.92;13.10;;;;;;;10.88;72.97;99101.78;5011547;28;20084;-73
2021/09/03 03:44:27;;;;;;;24.77;13.80;;;;;;;10.82;73.31;99097.41;5029154;28;20028;-72
2021/09/03 03:46:53;;;;;;;22.23;12.35;;;;;;;10.78;73.60;99090.88;5028468;28;20025;-73
2021/09/03 03:49:18;;;;;;;23.05;12.80;;;;;;;10.75;73.56;99096.94;5028876;28;20029;-73
2021/09/03 03:51:44;;;;;;;21.90;11.98;;;;;;;10.77;73.70;99101.00;5028617;28;20017;-72
2021/09/03 03:54:09;;;;;;;21.77;12.40;;;;;;;10.77;73.33;99092.78;5028985;28;20079;-72
2021/09/03 03:56:35;;;;;;;23.25;12.60;;;;;;;10.75;73.38;99086.75;5028738;28;20382;-73
2021/09/03 03:59:00;;;;;;;23.50;12.52;;;;;;;10.77;73.70;99090.03;5028585;28;20533;-73
2021/09/03 04:01:25;;;;;;;19.83;12.27;;;;;;;10.77;73.76;99091.97;5010910;28;20113;-73
2021/09/03 04:03:51;;;;;;;26.63;12.75;;;;;;;10.78;73.46;99093.63;5028619;28;20025;-72
2021/09/03 04:06:16;;;;;;;21.10;12.65;;;;;;;10.78;73.85;99088.13;5031173;28;20026;-72
2021/09/03 04:08:42;;;;;;;23.20;12.13;;;;;;;10.80;73.57;99078.50;5014191;28;20072;-73
2021/09/03 04:11:07;;;;;;;21.30;11.65;;;;;;;10.81;74.09;99077.41;5032269;28;20021;-73
2021/09/03 04:13:33;;;;;;;19.30;11.35;;;;;;;10.84;74.20;99076.00;5032273;28;20087;-73
2021/09/03 04:15:58;;;;;;;17.95;10.88;;;;;;;10.86;73.52;99068.31;5032176;28;20048;-73
2021/09/03 04:18:24;;;;;;;16.88;10.85;;;;;;;10.85;74.33;99073.00;5031664;28;20021;-73
2021/09/03 04:20:49;;;;;;;17.55;10.10;;;;;;;10.89;74.35;99072.44;5014261;28;20387;-73
2021/09/03 04:23:15;;;;;;;15.73;10.18;;;;;;;10.89;74.38;99065.00;5031727;28;20013;-74
2021/09/03 04:25:40;;;;;;;17.77;10.30;;;;;;;10.90;74.14;99066.66;5032143;28;20045;-73
2021/09/03 04:28:06;;;;;;;16.40;9.80;;;;;;;10.92;73.66;99064.44;5031257;28;20028;-72
2021/09/03 04:30:31;;;;;;;15.85;9.57;;;;;;;10.93;73.87;99059.78;5032360;28;20377;-72
2021/09/03 04:32:57;;;;;;;15.93;8.68;;;;;;;10.92;73.41;99064.44;5031770;28;20026;-72
2021/09/03 04:35:22;;;;;;;18.33;9.30;;;;;;;10.94;74.06;99059.50;5013938;28;20025;-73
2021/09/03 04:37:49;;;;;;;16.70;9.70;;;;;;;10.94;73.54;99070.47;5031382;28;20071;-72
2021/09/03 04:40:17;;;;;;;16.42;9.57;;;;;;;10.97;74.32;99067.16;5031476;28;20105;-72
2021/09/03 04:42:43;;;;;;;17.50;9.80;;;;;;;11.02;74.18;99061.63;5031067;28;20397;-73
2021/09/03 04:45:10;;;;;;;15.85;9.35;;;;;;;11.08;74.43;99065.16;5013944;28;20021;-72
2021/09/03 04:47:36;;;;;;;17.45;9.73;;;;;;;11.15;74.44;99070.34;5029378;28;20061;-72
2021/09/03 04:50:05;;;;;;;16.13;9.05;;;;;;;11.20;73.91;99062.09;5031384;28;20024;-72
2021/09/03 04:52:30;;;;;;;17.43;10.17;;;;;;;11.25;74.28;99067.50;5031047;28;20029;-72
2021/09/03 04:54:56;;;;;;;16.98;10.25;;;;;;;11.29;74.60;99071.31;5013457;28;20286;-73
2021/09/03 04:57:21;;;;;;;18.08;10.15;;;;;;;11.35;73.91;99074.88;5031086;28;20022;-72
2021/09/03 04:59:47;;;;;;;15.85;9.95;;;;;;;11.40;73.95;99072.09;5030827;28;20009;-72
2021/09/03 05:02:12;;;;;;;22.10;11.65;;;;;;;11.46;74.29;99078.34;5030965;28;20489;-73
2021/09/03 05:04:37;;;;;;;19.30;10.80;;;;;;;11.54;74.34;99076.91;5031057;28;20689;-72
2021/09/03 05:07:03;;;;;;;17.45;10.30;;;;;;;11.61;74.53;99075.47;5031085;28;20013;-72
2021/09/03 05:09:28;;;;;;;18.48;10.65;;;;;;;11.67;74.74;99075.41;5030590;28;20025;-73
2021/09/03 05:11:54;;;;;;;16.85;10.50;;;;;;;11.73;74.65;99071.53;5012676;28;20035;-72
2021/09/03 05:14:19;;;;;;;17.00;10.27;;;;;;;11.79;74.48;99067.63;5030940;28;20029;-73
2021/09/03 05:16:44;;;;;;;19.70;11.25;;;;;;;11.84;74.37;99070.31;5011973;28;20367;-72
2021/09/03 05:19:10;;;;;;;24.23;12.27;;;;;;;11.89;74.84;99072.19;5030269;28;20072;-72
2021/09/03 05:21:35;;;;;;;20.83;11.52;;;;;;;11.94;74.04;99072.16;5027570;28;20033;-72
2021/09/03 05:24:00;;;;;;;22.02;11.20;;;;;;;12.01;74.34;99072.66;5028974;28;20022;-73
2021/09/03 05:26:26;;;;;;;18.40;11.15;;;;;;;12.09;74.55;99073.13;5030717;28;20064;-73
2021/09/03 05:28:52;;;;;;;19.17;10.70;;;;;;;12.15;74.70;99080.22;5029695;28;20512;-73
2021/09/03 05:31:17;;;;;;;17.05;11.23;;;;;;;12.23;74.97;99085.06;5030667;28;20021;-73
2021/09/03 05:33:43;;;;;;;19.85;11.07;;;;;;;12.29;74.79;99075.66;5030472;28;20075;-73
2021/09/03 05:36:08;;;;;;;18.85;11.38;;;;;;;12.33;74.63;99075.91;5030446;28;20023;-73
2021/09/03 05:38:33;;;;;;;18.17;10.98;;;;;;;12.41;74.41;99085.44;5030093;28;20017;-72
2021/09/03 05:40:59;;;;;;;19.95;10.93;;;;;;;12.49;74.55;99073.78;5030212;28;20810;-72
2021/09/03 05:43:24;;;;;;;23.67;11.27;;;;;;;12.56;75.33;99070.66;5012130;28;20048;-73
2021/09/03 05:45:50;;;;;;;15.88;10.27;;;;;;;12.61;74.65;99067.84;5030128;28;20053;-73
2021/09/03 05:48:15;;;;;;;17.83;9.85;;;;;;;12.68;74.34;99067.47;5029774;28;20049;-72
2021/09/03 05:50:40;;;;;;;18.58;10.48;;;;;;;12.73;74.40;99068.25;5012438;28;20386;-72
2021/09/03 05:53:06;;;;;;;18.67;10.05;;;;;;;12.80;74.57;99063.22;5012610;28;20021;-72
2021/09/03 05:55:31;;;;;;;18.38;10.50;;;;;;;12.90;74.30;99061.41;5030577;28;20124;-72
2021/09/03 05:57:57;;;;;;;18.98;10.20;;;;;;;12.96;74.25;99060.22;5030860;28;20128;-72
2021/09/03 06:00:23;;;;;;;16.55;8.57;;;;;;;13.03;74.59;99052.41;5013152;28;20076;-73
2021/09/03 06:02:48;;;;;;;23.27;10.60;;;;;;;13.10;74.44;99061.13;5030642;28;20083;-71
2021/09/03 06:05:13;;;;;;;15.45;8.55;;;;;;;13.18;74.52;99054.13;5013620;28;20017;-72
2021/09/03 06:07:39;;;;;;;13.68;8.75;;;;;;;13.27;74.29;99057.00;5030942;28;20061;-72
2021/09/03 06:10:05;;;;;;;16.58;8.52;;;;;;;13.36;74.47;99057.16;5031141;28;20481;-73
2021/09/03 06:12:30;;;;;;;14.93;9.38;;;;;;;13.47;74.24;99052.34;5030854;28;20040;-72
2021/09/03 06:14:56;;;;;;;16.42;8.18;;;;;;;13.58;74.38;99055.72;5030973;28;20033;-73
2021/09/03 06:17:21;;;;;;;13.50;7.72;;;;;;;13.66;74.54;99053.09;5031017;28;20511;-72
2021/09/03 06:19:47;;;;;;;16.25;8.00;;;;;;;13.75;73.99;99050.47;5030770;28;20029;-72
2021/09/03 06:22:12;;;;;;;13.68;7.95;;;;;;;13.86;74.21;99058.56;5030674;28;20056;-72
2021/09/03 06:24:38;;;;;;;15.80;9.23;;;;;;;13.94;74.00;99060.59;5030967;28;20032;-73
2021/09/03 06:27:06;;;;;;;15.52;8.30;;;;;;;14.02;74.18;99054.38;5013267;28;20091;-73
2021/09/03 06:32:08;;;;;;;13.55;7.20;;;;;;;14.17;73.79;99055.22;5030370;28;20029;-72
2021/09/03 06:34:35;;;;;;;13.63;7.60;;;;;;;14.24;73.85;99048.19;5030963;28;20030;-73
2021/09/03 06:37:00;;;;;;;12.35;7.03;;;;;;;14.30;73.73;99046.13;5028866;28;20026;-72
2021/09/03 06:39:26;;;;;;;12.13;6.95;;;;;;;14.37;73.75;99048.50;5030223;28;20030;-72
2021/09/03 06:41:51;;;;;;;13.45;7.47;;;;;;;14.44;73.74;99041.44;5031084;28;20044;-72
2021/09/03 06:44:16;;;;;;;12.35;7.25;;;;;;;14.53;73.63;99044.28;5012930;28;20037;-72
2021/09/03 06:46:42;;;;;;;12.65;7.07;;;;;;;14.64;73.71;99042.13;5030255;28;20450;-72
2021/09/03 06:49:07;;;;;;;11.82;6.35;;;;;;;14.75;73.52;99040.00;5030200;28;20040;-72
2021/09/03 06:51:33;;;;;;;12.38;6.70;;;;;;;14.86;73.92;99041.41;5030236;28;20467;-73
2021/09/03 06:53:58;;;;;;;14.65;6.78;;;;;;;14.95;73.18;99041.47;5030960;28;20040;-73
2021/09/03 06:56:24;;;;;;;15.15;6.57;;;;;;;15.05;73.05;99045.94;5013356;28;20470;-73
2021/09/03 06:58:49;;;;;;;10.20;6.20;;;;;;;15.18;72.80;99047.03;5029628;28;20035;-73
2021/09/03 07:01:14;;;;;;;10.00;6.38;;;;;;;15.27;72.85;99044.34;5013258;28;20120;-72
2021/09/03 07:03:40;;;;;;;11.10;6.07;;;;;;;15.37;72.64;99048.81;5030509;28;20103;-73
2021/09/03 07:06:05;;;;;;;9.98;6.13;;;;;;;15.44;72.50;99040.91;5030913;28;20106;-74
2021/09/03 07:08:30;;;;;;;14.85;6.13;;;;;;;15.53;71.51;99043.72;5030408;28;20039;-73
2021/09/03 07:10:56;;;;;;;12.98;6.63;;;;;;;15.56;71.97;99038.34;5030651;28;20044;-73
2021/09/03 07:13:21;;;;;;;14.18;6.82;;;;;;;15.62;71.66;99039.88;5029304;28;20013;-73
2021/09/03 07:15:46;;;;;;;17.73;8.55;;;;;;;15.71;72.26;99030.81;5030109;28;20405;-73
2021/09/03 07:18:12;;;;;;;12.10;6.93;;;;;;;15.77;71.47;99040.59;5030518;28;20021;-73
2021/09/03 07:20:37;;;;;;;10.32;6.65;;;;;;;15.83;71.55;99039.34;5030344;28;20053;-73
2021/09/03 07:23:02;;;;;;;13.48;6.70;;;;;;;15.91;71.73;99040.53;5030292;28;20036;-73
2021/09/03 07:25:28;;;;;;;9.90;5.75;;;;;;;16.00;71.31;99038.66;5030548;28;20028;-71
2021/09/03 07:27:53;;;;;;;9.80;5.90;;;;;;;16.07;71.07;99040.94;5030143;28;20040;-73
2021/09/03 07:30:19;;;;;;;10.75;5.90;;;;;;;16.17;71.42;99035.13;5030317;28;20538;-72
2021/09/03 07:32:44;;;;;;;11.50;6.68;;;;;;;16.28;71.35;99041.19;5030026;28;20114;-73
2021/09/03 07:35:14;;;;;;;8.60;5.13;;;;;;;16.36;70.89;99034.88;5030519;28;20026;-73
2021/09/03 07:37:40;;;;;;;9.25;5.68;;;;;;;16.46;70.91;99038.50;5030150;28;20026;-73
2021/09/03 07:40:07;;;;;;;9.98;6.18;;;;;;;16.55;70.68;99036.53;5028321;28;20105;-72
2021/09/03 07:42:33;;;;;;;9.80;5.97;;;;;;;16.62;70.45;99038.84;5034156;28;20494;-73
2021/09/03 07:44:59;;;;;;;8.82;5.65;;;;;;;16.69;70.17;99033.66;5034084;28;20025;-73
2021/09/03 07:47:24;;;;;;;11.13;5.40;;;;;;;16.76;70.46;99025.66;5033777;28;20029;-73
2021/09/03 07:49:50;;;;;;;9.68;5.80;;;;;;;16.86;70.29;99026.50;5034079;28;20478;-72
2021/09/03 07:52:15;;;;;;;8.77;5.53;;;;;;;16.90;70.25;99022.78;5033756;28;20030;-73
2021/09/03 07:54:40;;;;;;;9.45;5.32;;;;;;;16.98;70.19;99017.56;5034038;28;20028;-74
2021/09/03 07:57:06;;;;;;;9.05;5.57;;;;;;;17.05;70.57;99026.22;5034314;28;20469;-73
2021/09/03 07:59:31;;;;;;;9.07;5.90;;;;;;;17.10;70.11;99017.75;5033613;28;20458;-73
2021/09/03 08:01:57;;;;;;;12.13;5.70;;;;;;;17.19;69.85;99015.78;5015844;28;20108;-73
2021/09/03 08:04:22;;;;;;;7.97;5.63;;;;;;;17.24;69.58;99023.13;5016510;28;20030;-73
2021/09/03 08:06:47;;;;;;;9.43;5.40;;;;;;;17.29;69.11;99014.63;5033584;28;20021;-74
2021/09/03 08:09:13;;;;;;;8.20;5.50;;;;;;;17.34;68.90;99011.69;5033359;28;20040;-74
2021/09/03 08:11:38;;;;;;;11.15;6.18;;;;;;;17.38;68.56;99012.66;5032834;28;20548;-73
2021/09/03 08:14:03;;;;;;;11.65;6.13;;;;;;;17.44;68.65;99012.50;5033400;28;20044;-74
2021/09/03 08:16:29;;;;;;;8.90;5.45;;;;;;;17.50;68.63;99000.91;5033151;28;20037;-73
2021/09/03 08:18:54;;;;;;;8.85;5.55;;;;;;;17.54;68.69;99010.19;5032629;28;20112;-73
2021/09/03 08:21:20;;;;;;;9.10;5.47;;;;;;;17.59;68.13;99006.41;5032799;28;20099;-73
2021/09/03 08:23:45;;;;;;;8.30;4.82;;;;;;;17.66;68.09;99006.72;5033305;28;20027;-72
2021/09/03 08:26:11;;;;;;;8.93;5.03;;;;;;;17.72;68.19;98999.06;5033196;28;20052;-74
2021/09/03 08:28:36;;;;;;;13.80;6.40;;;;;;;17.80;68.00;98997.41;5033035;28;20132;-73
2021/09/03 08:31:01;;;;;;;9.60;5.57;;;;;;;17.89;68.13;99002.91;5032968;28;20028;-72
2021/09/03 08:33:27;;;;;;;14.60;6.30;;;;;;;17.95;67.47;99002.38;5026030;28;20026;-72
2021/09/03 08:35:52;;;;;;;14.57;6.03;;;;;;;17.99;67.45;99000.63;5030381;28;20109;-73
2021/09/03 08:38:18;;;;;;;13.80;6.10;;;;;;;18.05;66.85;98998.47;5031401;28;20117;-73
2021/09/03 08:40:44;;;;;;;15.40;6.55;;;;;;;18.10;67.32;98991.91;5014128;28;20039;-73
2021/09/03 08:43:09;;;;;;;12.07;5.57;;;;;;;18.18;66.88;98996.63;5030311;28;20033;-73
2021/09/03 08:45:36;;;;;;;7.28;5.10;;;;;;;18.25;66.48;98993.31;5030597;28;20037;-72
2021/09/03 08:48:02;;;;;;;10.00;5.75;;;;;;;18.31;66.33;98980.88;5030314;28;20030;-74
2021/09/03 08:50:27;;;;;;;9.00;5.47;;;;;;;18.37;65.09;98979.53;5013356;28;20107;-74
2021/09/03 08:52:53;;;;;;;7.93;5.53;;;;;;;18.41;65.41;98982.44;5029693;28;20524;-76
2021/09/03 08:55:18;;;;;;;7.72;5.32;;;;;;;18.48;64.96;98987.50;5030016;28;20032;-74
2021/09/03 08:57:44;;;;;;;7.97;5.00;;;;;;;18.53;65.05;98992.84;5012784;28;20040;-77
2021/09/03 09:00:36;;;;;;;6.45;4.70;;;;;;;18.58;64.73;98985.13;5028991;28;20080;-74
2021/09/03 09:03:05;;;;;;;7.35;4.80;;;;;;;18.64;64.84;98988.50;5025626;28;20401;-73
2021/09/03 09:05:59;;;;;;;7.47;5.18;;;;;;;18.72;64.76;98987.63;5030502;28;20087;-72
2021/09/03 09:08:28;;;;;;;6.60;4.70;;;;;;;18.82;64.24;98985.63;5014898;28;20045;-72
2021/09/03 09:11:02;;;;;;;7.82;5.10;;;;;;;18.86;63.32;98981.00;5029560;28;20108;-73
2021/09/03 09:13:32;;;;;;;6.32;4.53;;;;;;;18.90;61.96;98979.97;5030515;28;20044;-73
2021/09/03 09:15:59;;;;;;;7.88;4.90;;;;;;;18.97;62.43;98973.09;5030734;28;20111;-72
2021/09/03 09:18:49;;;;;;;7.70;4.80;;;;;;;19.08;63.14;98970.72;5028666;28;20029;-72
2021/09/03 09:21:16;;;;;;;9.60;5.22;;;;;;;19.26;62.58;98980.53;5028836;28;20804;-71
2021/09/03 09:23:48;;;;;;;8.18;4.65;;;;;;;19.33;62.46;98969.66;5029196;28;20072;-71
2021/09/03 09:26:16;;;;;;;5.80;4.50;;;;;;;19.41;62.15;98967.94;5029803;28;20030;-70
2021/09/03 09:28:42;;;;;;;9.77;5.00;;;;;;;19.48;62.22;98951.50;5026368;28;20041;-72
2021/09/03 09:31:08;;;;;;;8.63;4.57;;;;;;;19.54;61.17;98952.09;5028028;28;20029;-71
2021/09/03 09:33:33;;;;;;;7.95;4.88;;;;;;;19.59;61.44;98948.25;5028044;28;20036;-71
2021/09/03 09:36:00;;;;;;;7.55;4.93;;;;;;;19.66;60.94;98956.84;5009658;28;20045;-72
2021/09/03 09:38:35;;;;;;;8.15;4.50;;;;;;;19.75;60.88;98948.44;5029320;28;20509;-71
2021/09/03 09:41:03;;;;;;;7.60;4.35;;;;;;;19.84;60.92;98951.09;5028192;28;20034;-70
2021/09/03 09:43:29;;;;;;;6.00;4.18;;;;;;;19.92;59.69;98948.22;5027368;28;20120;-71
2021/09/03 09:46:14;;;;;;;7.90;4.50;;;;;;;19.95;59.60;98959.84;5028962;28;20472;-73
2021/09/03 09:48:48;;;;;;;7.90;4.80;;;;;;;19.98;59.33;98950.78;5027207;28;20039;-71
2021/09/03 09:51:19;;;;;;;6.15;4.38;;;;;;;20.04;58.21;98941.03;5028826;28;20040;-73
2021/09/03 09:54:01;;;;;;;7.40;4.18;;;;;;;20.06;58.67;98941.50;5028361;28;20102;-72
2021/09/03 09:56:32;;;;;;;6.90;4.25;;;;;;;20.05;56.13;98932.34;5026331;28;20036;-72
2021/09/03 09:59:00;;;;;;;6.40;4.25;;;;;;;20.07;55.32;98930.00;5027774;28;20029;-71
2021/09/03 10:01:26;;;;;;;7.63;4.40;;;;;;;20.16;56.33;98934.66;5028439;28;20033;-72
2021/09/03 10:03:54;;;;;;;7.53;4.13;;;;;;;20.26;57.30;98938.94;5028597;28;20041;-71
2021/09/03 10:06:22;;;;;;;5.90;3.97;;;;;;;20.38;56.80;98938.94;5029536;28;20134;-72
2021/09/03 10:08:48;;;;;;;5.93;3.67;;;;;;;20.51;54.98;98923.81;5028903;28;20500;-72
2021/09/03 10:11:19;;;;;;;5.53;4.03;;;;;;;20.71;55.91;98926.78;5028812;28;20040;-71
2021/09/03 10:13:45;;;;;;;8.60;4.18;;;;;;;20.95;55.62;98925.13;5029095;28;20432;-71
2021/09/03 10:16:11;;;;;;;5.55;4.22;;;;;;;21.11;56.33;98930.72;5010812;28;20057;-72
2021/09/03 10:18:42;;;;;;;6.20;4.30;;;;;;;21.29;55.21;98922.84;5028516;28;20026;-71
2021/09/03 10:21:08;;;;;;;8.05;4.50;;;;;;;21.36;55.46;98925.84;5027439;28;20041;-72
2021/09/03 10:23:55;;;;;;;6.00;4.18;;;;;;;21.30;55.98;98921.69;5026773;28;20029;-70
2021/09/03 10:26:25;;;;;;;6.57;4.45;;;;;;;21.30;55.40;98920.88;5010379;28;20478;-73
2021/09/03 10:29:24;;;;;;;5.95;4.00;;;;;;;21.23;55.35;98919.50;5027900;28;20052;-72
2021/09/03 10:32:04;;;;;;;6.20;4.23;;;;;;;21.29;55.10;98914.50;5028346;28;20083;-72
2021/09/03 10:34:38;;;;;;;10.40;6.10;;;;;;;21.36;55.04;98911.06;5027654;28;20065;-72
2021/09/03 10:37:05;;;;;;;6.40;4.47;;;;;;;21.48;54.62;98910.19;5028214;28;20033;-73
2021/09/03 10:40:05;;;;;;;5.10;3.75;;;;;;;21.51;53.48;98906.66;5027807;28;20053;-70
2021/09/03 10:45:10;;;;;;;6.10;3.85;;;;;;;21.70;53.88;98912.41;5028098;28;20029;-72
2021/09/03 10:47:40;;;;;;;7.00;3.75;;;;;;;21.85;53.35;98904.34;5028416;28;20501;-72
2021/09/03 10:50:17;;;;;;;6.25;4.00;;;;;;;21.94;53.95;98899.41;5028730;28;20112;-72
2021/09/03 10:53:05;;;;;;;5.82;4.30;;;;;;;22.06;53.04;98900.47;5026887;28;20057;-71
2021/09/03 10:55:52;;;;;;;7.38;4.25;;;;;;;22.15;52.40;98898.31;5026391;28;20040;-71
2021/09/03 10:58:35;;;;;;;8.20;4.53;;;;;;;22.36;52.08;98888.78;5024594;28;20037;-72
2021/09/03 11:01:13;;;;;;;4.32;3.75;;;;;;;22.58;51.17;98885.31;5027087;28;20091;-72
2021/09/03 11:03:50;;;;;;;7.25;4.60;;;;;;;22.77;51.66;98877.28;5026943;28;20798;-72
2021/09/03 11:06:23;;;;;;;7.45;4.57;;;;;;;22.87;50.04;98871.91;5026505;28;20553;-72
2021/09/03 11:08:49;;;;;;;6.15;3.97;;;;;;;22.92;48.42;98864.41;5025676;28;20037;-72
2021/09/03 11:11:40;;;;;;;5.32;4.38;;;;;;;23.00;49.54;98874.56;5028061;28;20026;-72
2021/09/03 11:14:13;;;;;;;5.38;4.50;;;;;;;23.04;48.78;98872.59;5024229;28;20045;-73
2021/09/03 11:16:46;;;;;;;5.72;4.45;;;;;;;22.92;49.70;98873.59;5030774;28;20053;-72
2021/09/03 11:19:13;;;;;;;8.02;3.72;;;;;;;22.82;48.46;98872.19;5032434;28;20029;-71
2021/09/03 11:21:41;;;;;;;6.25;4.25;;;;;;;22.69;48.17;98868.75;5013075;28;20036;-73
2021/09/03 11:24:08;;;;;;;5.33;4.20;;;;;;;22.55;48.30;98860.88;5032160;28;20656;-72
2021/09/03 11:26:35;;;;;;;6.30;4.10;;;;;;;22.54;48.93;98864.03;5033266;28;20025;-72
2021/09/03 11:29:04;;;;;;;7.60;4.60;;;;;;;22.68;49.47;98857.94;5031518;28;20509;-72